createdAt,value
2022-10-07T00:00:49.050Z,59.6
2022-10-07T00:20:49.001Z,59.5
2022-10-07T00:40:48.966Z,59.5
2022-10-07T01:00:48.949Z,59.5
2022-10-07T01:20:48.911Z,59.5
2022-10-07T01:40:48.919Z,59.5
2022-10-07T02:00:48.885Z,59.5
2022-10-07T02:20:48.871Z,59.4
2022-10-07T02:40:48.825Z,59.4
2022-10-07T03:00:48.780Z,59.3
2022-10-07T03:20:48.798Z,59.3
2022-10-07T03:40:48.750Z,59.2
2022-10-07T04:00:48.728Z,59.2
2022-10-07T04:20:48.716Z,59.2
2022-10-07T04:40:48.672Z,59.2
2022-10-07T05:00:48.679Z,59.1
2022-10-07T05:20:48.639Z,59.0
2022-10-07T05:40:48.622Z,58.9
2022-10-07T06:00:48.593Z,58.9
2022-10-07T06:20:48.563Z,58.8
2022-10-07T06:40:48.511Z,58.8
2022-10-07T07:00:48.525Z,58.8
2022-10-07T07:20:48.465Z,58.7
2022-10-07T07:40:48.439Z,58.8
2022-10-07T08:00:48.423Z,58.7
2022-10-07T08:20:48.410Z,58.7
2022-10-07T08:40:48.390Z,58.5
2022-10-07T09:00:48.353Z,58.4
2022-10-07T09:20:48.341Z,58.2
2022-10-07T09:40:48.302Z,58.2
2022-10-07T10:00:48.401Z,58.2
2022-10-07T10:20:48.262Z,58.2
2022-10-07T10:40:48.227Z,58.3
2022-10-07T11:00:48.282Z,58.5
2022-10-07T11:20:48.167Z,58.6
2022-10-07T11:40:48.178Z,58.7
2022-10-07T12:00:48.123Z,58.8
2022-10-07T12:20:48.105Z,58.9
2022-10-07T12:40:48.135Z,59.0
2022-10-07T13:00:48.059Z,59.1
2022-10-07T13:20:48.050Z,59.1
2022-10-07T13:40:48.029Z,59.2
2022-10-07T14:00:48.014Z,59.4
2022-10-07T14:20:47.964Z,59.4
2022-10-07T14:40:47.920Z,59.5
2022-10-07T15:00:47.908Z,59.5
2022-10-07T15:20:47.874Z,59.6
2022-10-07T15:40:47.858Z,59.7
2022-10-07T16:00:47.855Z,59.7
2022-10-07T16:20:47.829Z,59.7
2022-10-07T16:40:47.762Z,59.7
2022-10-07T17:00:47.786Z,59.7
2022-10-07T17:20:47.762Z,59.7
2022-10-07T17:40:47.709Z,59.7
2022-10-07T18:00:47.747Z,59.7
2022-10-07T18:20:47.691Z,59.9
2022-10-07T18:40:47.653Z,60.0
2022-10-07T19:00:47.630Z,60.4
2022-10-07T19:20:47.606Z,60.6
2022-10-07T19:40:47.586Z,60.7
2022-10-07T20:00:47.558Z,60.7
2022-10-07T20:20:47.524Z,60.7
2022-10-07T20:40:47.497Z,60.7
2022-10-07T21:00:47.515Z,60.8
2022-10-07T21:20:47.441Z,60.9
2022-10-07T21:40:47.431Z,60.9
2022-10-07T22:00:47.391Z,60.9
2022-10-07T22:20:47.345Z,61.0
2022-10-07T22:40:47.328Z,61.0
2022-10-07T23:00:47.327Z,61.0
2022-10-07T23:20:47.298Z,61.1
2022-10-07T23:40:47.304Z,61.1
